Time;durP1;ratioP1;P1;durP2;ratioP2;P2;SDS_P1;SDS_P2;PMS_P1;PMS_P2;Temp;Humidity;BMP_temperature;BMP_pressure;BME280_temperature;BME280_humidity;BME280_pressure;Samples;Min_cycle;Max_cycle;Signal;HPM_P1;HPM_P2
2022/05/18 00:01:47;;;;;;;2.60;1.20;;;;;;;7.14;38.81;101018.25;106171;1274;97922;-72
2022/05/18 00:04:19;;;;;;;2.80;1.50;;;;;;;7.11;39.11;101012.74;107748;1271;95940;-72
2022/05/18 00:06:51;;;;;;;4.80;1.50;;;;;;;7.06;38.96;101011.39;107623;1274;137253;-72
2022/05/18 00:09:23;;;;;;;4.50;1.30;;;;;;;7.02;39.40;101013.33;107754;1273;107589;-73
2022/05/18 00:11:55;;;;;;;2.90;1.40;;;;;;;6.99;39.53;101015.56;106385;1273;138606;-72
2022/05/18 00:14:28;;;;;;;2.90;1.60;;;;;;;6.98;39.75;101019.38;106164;1273;97856;-72
2022/05/18 00:17:03;;;;;;;2.70;1.50;;;;;;;6.96;39.73;101024.05;106144;1273;97739;-72
2022/05/18 00:19:36;;;;;;;3.40;1.30;;;;;;;6.94;40.08;101030.12;106361;1273;137181;-72
2022/05/18 00:22:08;;;;;;;2.30;1.50;;;;;;;6.91;40.08;101023.92;107418;1272;109050;-72
2022/05/18 00:24:41;;;;;;;2.90;1.50;;;;;;;6.86;40.12;101023.09;106091;1274;137719;-72
2022/05/18 00:27:14;;;;;;;6.30;1.50;;;;;;;6.81;40.31;101027.94;106352;1272;98589;-72
2022/05/18 00:29:46;;;;;;;3.40;1.40;;;;;;;6.79;40.68;101027.76;106497;1274;137954;-72
2022/05/18 00:32:18;;;;;;;2.80;1.20;;;;;;;6.77;41.15;101031.75;106223;1273;112579;-71
2022/05/18 00:34:50;;;;;;;2.30;1.20;;;;;;;6.76;41.26;101030.89;107744;1273;109171;-72
2022/05/18 00:37:22;;;;;;;4.20;1.50;;;;;;;6.77;41.20;101035.55;106141;1274;137752;-72
2022/05/18 00:39:54;;;;;;;2.90;1.30;;;;;;;6.76;41.57;101037.98;107713;1273;96090;-73
2022/05/18 00:42:28;;;;;;;3.60;1.50;;;;;;;6.76;41.46;101043.69;106282;1273;137378;-72
2022/05/18 00:45:00;;;;;;;5.40;1.80;;;;;;;6.76;41.47;101050.08;107764;1273;111333;-72
2022/05/18 00:47:33;;;;;;;2.80;1.50;;;;;;;6.76;41.68;101051.45;106879;1273;138021;-71
2022/05/18 00:50:09;;;;;;;3.70;2.00;;;;;;;6.76;41.62;101061.66;106280;1273;107785;-72
2022/05/18 00:52:45;;;;;;;7.60;2.00;;;;;;;6.74;42.01;101058.39;107722;1272;95985;-73
2022/05/18 00:55:21;;;;;;;3.80;1.80;;;;;;;6.76;42.28;101063.58;107676;1271;137728;-73
2022/05/18 00:57:57;;;;;;;3.00;1.90;;;;;;;6.75;42.27;101071.69;107730;1273;111079;-72
2022/05/18 01:00:29;;;;;;;4.00;1.70;;;;;;;6.73;42.46;101078.44;106502;1273;137597;-72
2022/05/18 01:03:09;;;;;;;5.70;1.80;;;;;;;6.72;42.67;101082.60;106222;1273;107222;-71
2022/05/18 01:05:48;;;;;;;2.50;1.70;;;;;;;6.69;42.65;101083.83;106619;1273;137893;-71
2022/05/18 01:08:29;;;;;;;2.60;1.50;;;;;;;6.65;42.90;101083.83;106242;1274;97947;-72
2022/05/18 01:11:01;;;;;;;3.70;1.60;;;;;;;6.63;43.01;101086.75;107747;1273;112450;-72
2022/05/18 01:13:33;;;;;;;4.10;1.40;;;;;;;6.61;43.24;101087.79;106393;1272;137868;-70
2022/05/18 01:16:07;;;;;;;5.40;1.50;;;;;;;6.58;43.43;101086.08;106217;1273;108643;-71
2022/05/18 01:18:40;;;;;;;2.70;1.50;;;;;;;6.55;43.70;101087.13;107652;1272;137923;-72
2022/05/18 01:21:12;;;;;;;3.10;1.60;;;;;;;6.53;43.72;101084.71;107773;1273;96040;-71
2022/05/18 01:23:54;;;;;;;3.60;2.10;;;;;;;6.52;43.89;101088.17;106244;1273;137944;-71
2022/05/18 01:26:40;;;;;;;5.20;1.80;;;;;;;6.50;44.07;101090.60;106141;1273;109032;-73
2022/05/18 01:29:12;;;;;;;5.00;1.70;;;;;;;6.44;44.12;101094.91;106198;1273;109064;-72
2022/05/18 01:31:50;;;;;;;4.70;1.80;;;;;;;6.37;44.52;101098.55;106214;1273;97867;-72
2022/05/18 01:34:26;;;;;;;3.70;1.70;;;;;;;6.35;44.79;101097.36;106222;1273;97858;-72
2022/05/18 01:36:58;;;;;;;3.40;2.00;;;;;;;6.34;45.00;101102.89;106245;1273;137464;-73
2022/05/18 01:39:35;;;;;;;3.00;1.50;;;;;;;6.33;45.06;101106.02;107757;1273;108067;-72
2022/05/18 01:42:17;;;;;;;1.80;1.40;;;;;;;6.31;44.99;101108.42;106751;1273;138131;-72
2022/05/18 01:44:49;;;;;;;7.10;2.40;;;;;;;6.24;45.17;101109.96;107711;1273;96135;-71
2022/05/18 01:47:21;;;;;;;3.50;1.80;;;;;;;6.20;45.15;101112.57;107608;1273;139373;-71
2022/05/18 01:49:54;;;;;;;2.90;1.60;;;;;;;6.17;45.44;101111.02;107747;1272;110405;-72
2022/05/18 01:52:26;;;;;;;5.20;1.90;;;;;;;6.13;45.31;101106.19;107674;1273;107794;-72
2022/05/18 01:54:58;;;;;;;4.80;1.90;;;;;;;6.08;45.11;101101.34;107595;1273;138084;-72
2022/05/18 01:57:30;;;;;;;4.70;2.00;;;;;;;6.02;45.14;101107.56;107686;1273;96079;-72
2022/05/18 02:00:03;;;;;;;5.20;2.10;;;;;;;5.98;45.26;101108.95;107599;1273;138331;-71
2022/05/18 02:02:42;;;;;;;4.80;1.90;;;;;;;5.97;45.61;101110.52;107722;1271;110149;-71
2022/05/18 02:05:15;;;;;;;2.70;1.60;;;;;;;5.93;45.54;101112.58;106803;1273;107665;-73
2022/05/18 02:07:47;;;;;;;4.60;1.60;;;;;;;5.91;45.67;101114.96;106323;1273;107893;-73
2022/05/18 02:10:20;;;;;;;4.80;1.70;;;;;;;5.89;45.58;101109.26;106158;1273;97851;-73
2022/05/18 02:12:52;;;;;;;3.00;2.10;;;;;;;5.90;45.85;101109.61;106231;1273;137765;-71
2022/05/18 02:15:24;;;;;;;5.10;2.20;;;;;;;5.87;46.02;101112.35;106110;1273;112652;-73
2022/05/18 02:17:56;;;;;;;5.00;2.30;;;;;;;5.84;46.06;101118.56;106046;1273;137921;-71
2022/05/18 02:20:28;;;;;;;5.80;2.50;;;;;;;5.80;46.09;101122.89;107704;1273;109049;-72
2022/05/18 02:23:00;;;;;;;5.60;2.20;;;;;;;5.75;46.47;101126.84;107707;1273;95820;-73
2022/05/18 02:25:33;;;;;;;3.00;1.90;;;;;;;5.72;46.56;101128.19;107623;1273;137504;-73
2022/05/18 02:28:06;;;;;;;3.60;2.30;;;;;;;5.66;46.84;101126.47;107790;1273;112967;-72
2022/05/18 02:30:38;;;;;;;5.10;2.20;;;;;;;5.63;47.01;101130.95;107594;1273;137523;-72
2022/05/18 02:33:10;;;;;;;5.50;2.10;;;;;;;5.61;47.04;101135.61;107735;1273;109741;-72
2022/05/18 02:35:42;;;;;;;5.10;2.00;;;;;;;5.58;47.16;101132.50;106996;1273;137705;-71
2022/05/18 02:38:15;;;;;;;5.00;2.00;;;;;;;5.53;47.38;101135.40;106167;1273;97823;-73
2022/05/18 02:40:47;;;;;;;3.50;2.10;;;;;;;5.51;47.34;101138.51;106497;1272;111530;-72
2022/05/18 02:43:19;;;;;;;4.10;1.90;;;;;;;5.48;47.68;101142.47;106066;1273;138848;-72
2022/05/18 02:46:00;;;;;;;3.80;2.10;;;;;;;5.44;47.69;101146.09;106125;1273;108780;-72
2022/05/18 02:48:32;;;;;;;4.90;2.20;;;;;;;5.39;47.86;101150.21;106109;1273;137627;-73
2022/05/18 02:51:05;;;;;;;3.80;2.00;;;;;;;5.38;47.98;101152.27;106175;1273;97718;-72
2022/05/18 02:53:37;;;;;;;3.50;1.90;;;;;;;5.38;48.15;101157.80;106054;1273;137631;-73
2022/05/18 02:56:12;;;;;;;4.70;2.30;;;;;;;5.39;48.40;101161.95;106168;1273;109008;-71
2022/05/18 02:58:47;;;;;;;5.00;2.30;;;;;;;5.40;48.57;101165.58;106132;1272;109367;-73
2022/05/18 03:01:23;;;;;;;5.40;1.80;;;;;;;5.39;48.53;101177.98;107540;1273;139837;-72
2022/05/18 03:03:56;;;;;;;3.60;2.20;;;;;;;5.41;48.67;101184.73;107123;1273;97931;-73
2022/05/18 03:06:29;;;;;;;5.00;2.20;;;;;;;5.40;48.70;101186.95;106110;1273;137375;-72
2022/05/18 03:09:01;;;;;;;16.10;10.70;;;;;;;5.36;48.55;101191.58;106170;1273;108399;-73
2022/05/18 03:11:33;;;;;;;6.20;3.30;;;;;;;5.24;49.01;101189.64;106543;1273;138588;-73
2022/05/18 03:14:05;;;;;;;6.50;2.40;;;;;;;5.19;49.26;101192.52;106159;1273;98352;-74
2022/05/18 03:16:38;;;;;;;4.00;2.10;;;;;;;5.16;49.14;101199.58;106119;1273;97834;-73
2022/05/18 03:19:10;;;;;;;6.80;2.40;;;;;;;5.20;49.47;101202.71;106084;1273;137346;-73
2022/05/18 03:24:33;;;;;;;6.30;2.20;;;;;;;5.29;49.57;101213.97;106071;1273;138019;-72
2022/05/18 03:27:06;;;;;;;4.60;2.30;;;;;;;5.32;49.65;101218.98;107307;1271;97866;-72
2022/05/18 03:29:38;;;;;;;5.80;2.40;;;;;;;5.36;49.56;101225.55;106170;1273;138084;-72
2022/05/18 03:32:10;;;;;;;5.20;2.40;;;;;;;5.40;49.83;101227.31;106184;1273;112136;-74
2022/05/18 03:34:42;;;;;;;6.10;2.80;;;;;;;5.45;49.62;101225.95;106296;1273;108832;-73
2022/05/18 03:37:15;;;;;;;5.40;3.00;;;;;;;5.50;49.68;101228.04;106029;1273;138418;-73
2022/05/18 03:39:47;;;;;;;6.80;3.20;;;;;;;5.52;49.74;101232.52;107701;1273;96084;-73
2022/05/18 03:42:19;;;;;;;5.70;3.00;;;;;;;5.54;49.84;101237.70;107677;1272;137308;-72
2022/05/18 03:44:52;;;;;;;8.70;3.50;;;;;;;5.58;50.05;101240.15;107724;1273;111603;-73
2022/05/18 03:47:24;;;;;;;7.40;3.70;;;;;;;5.63;50.06;101242.07;106600;1273;139086;-72
2022/05/18 03:49:57;;;;;;;9.50;3.80;;;;;;;5.65;50.17;101244.31;106235;1273;108837;-72
2022/05/18 03:52:29;;;;;;;8.50;3.90;;;;;;;5.70;50.11;101253.13;106191;1273;97843;-73
2022/05/18 03:55:01;;;;;;;6.70;3.40;;;;;;;5.77;50.10;101255.41;106031;1273;137624;-73
2022/05/18 03:57:33;;;;;;;9.20;3.90;;;;;;;5.83;50.26;101257.67;106184;1273;112864;-72
2022/05/18 04:00:08;;;;;;;9.40;3.30;;;;;;;5.86;50.20;101257.67;106062;1273;137511;-72
2022/05/18 04:02:48;;;;;;;9.30;3.60;;;;;;;5.90;50.37;101264.78;107600;1273;108073;-72
2022/05/18 04:05:22;;;;;;;7.00;3.00;;;;;;;5.93;50.47;101271.20;106070;1271;137535;-73
2022/05/18 04:07:54;;;;;;;6.00;2.80;;;;;;;5.97;50.50;101281.23;107774;1273;96050;-72
2022/05/18 04:10:26;;;;;;;4.70;2.70;;;;;;;5.99;50.47;101289.87;107713;1273;112085;-73
2022/05/18 04:12:58;;;;;;;7.90;2.80;;;;;;;6.05;50.55;101291.42;107592;1273;137507;-73
2022/05/18 04:15:31;;;;;;;6.20;3.00;;;;;;;6.13;50.81;101290.60;106691;1273;107874;-72
2022/05/18 04:18:04;;;;;;;4.30;2.10;;;;;;;6.22;50.76;101293.90;106328;1273;137784;-71
2022/05/18 04:20:36;;;;;;;4.10;2.10;;;;;;;6.27;51.04;101290.11;106160;1273;97925;-71
2022/05/18 04:23:09;;;;;;;5.80;2.20;;;;;;;6.34;51.14;101287.54;107672;1273;111777;-72
2022/05/18 04:25:42;;;;;;;4.70;1.90;;;;;;;6.41;50.95;101288.39;107630;1273;137257;-72
2022/05/18 04:28:14;;;;;;;4.10;1.70;;;;;;;6.51;51.16;101290.84;107450;1273;278833;-71
2022/05/18 04:30:48;;;;;;;5.80;2.30;;;;;;;6.61;51.13;101293.60;107548;1273;138243;-72
2022/05/18 04:33:22;;;;;;;7.10;2.00;;;;;;;6.68;51.23;101293.80;107313;1273;97804;-71
2022/05/18 04:35:54;;;;;;;4.20;2.60;;;;;;;6.81;51.25;101299.50;107248;1272;138122;-72
2022/05/18 04:38:26;;;;;;;4.50;2.20;;;;;;;6.93;51.18;101295.52;107289;1273;107722;-72
2022/05/18 04:40:59;;;;;;;6.60;1.70;;;;;;;7.05;51.11;101301.21;106750;1272;108939;-73
2022/05/18 04:43:32;;;;;;;3.20;1.60;;;;;;;7.17;50.85;101296.02;107530;1273;137570;-73
2022/05/18 04:46:06;;;;;;;4.30;2.10;;;;;;;7.31;50.69;101297.89;106752;1273;97809;-72
2022/05/18 04:48:40;;;;;;;5.10;2.10;;;;;;;7.43;50.41;101297.70;107684;1272;137402;-72
2022/05/18 04:51:12;;;;;;;5.20;2.00;;;;;;;7.53;50.42;101297.65;106947;1273;107922;-72
2022/05/18 04:53:45;;;;;;;4.10;1.70;;;;;;;7.66;50.19;101298.48;106103;1273;138467;-72
2022/05/18 04:56:17;;;;;;;9.10;2.00;;;;;;;7.81;50.12;101299.98;106184;1273;97878;-72
2022/05/18 04:58:50;;;;;;;4.70;2.30;;;;;;;8.00;49.88;101301.64;106668;1272;97848;-72
2022/05/18 05:01:25;;;;;;;4.60;1.40;;;;;;;8.20;49.80;101302.04;107646;1271;137548;-73
2022/05/18 05:03:57;;;;;;;7.60;2.50;;;;;;;8.37;49.11;101295.56;107720;1273;108983;-73
2022/05/18 05:06:31;;;;;;;5.50;2.00;;;;;;;8.53;48.88;101288.71;107352;1273;138386;-73
2022/05/18 05:09:03;;;;;;;6.20;2.00;;;;;;;8.67;48.43;101286.70;107641;1272;95844;-73
2022/05/18 05:11:35;;;;;;;4.70;1.90;;;;;;;8.86;48.31;101284.81;107613;1273;138129;-72
2022/05/18 05:14:11;;;;;;;9.30;2.10;;;;;;;9.07;47.90;101286.34;107781;1271;113728;-72
2022/05/18 05:16:43;;;;;;;6.40;2.30;;;;;;;9.32;47.80;101287.31;107786;1271;107722;-73
2022/05/18 05:19:15;;;;;;;4.60;1.90;;;;;;;9.74;47.47;101289.44;107620;1271;138611;-72
2022/05/18 05:21:47;;;;;;;6.20;1.50;;;;;;;10.25;46.67;101291.76;107682;1273;96074;-72
2022/05/18 05:24:20;;;;;;;4.40;1.60;;;;;;;11.21;46.01;101293.13;107680;1272;138401;-72
2022/05/18 05:26:52;;;;;;;3.70;1.30;;;;;;;13.36;44.70;101294.41;107733;1273;111441;-72
2022/05/18 05:29:24;;;;;;;5.90;1.60;;;;;;;16.02;41.23;101289.65;107595;1273;138070;-71
2022/05/18 05:31:56;;;;;;;7.50;1.30;;;;;;;18.44;38.10;101278.38;107682;1273;107248;-72
2022/05/18 05:34:28;;;;;;;4.60;1.60;;;;;;;20.88;35.10;101274.30;107038;1273;96813;-73
2022/05/18 05:37:00;;;;;;;2.50;1.40;;;;;;;23.08;32.29;101271.92;107629;1272;137707;-71
2022/05/18 05:39:33;;;;;;;2.90;1.30;;;;;;;24.99;29.76;101268.43;106404;1273;111242;-71
2022/05/18 05:42:06;;;;;;;5.00;1.90;;;;;;;26.67;27.58;101265.31;107104;1273;137839;-71
2022/05/18 05:44:38;;;;;;;6.60;2.00;;;;;;;28.25;25.27;101263.04;107689;1272;107779;-72
2022/05/18 05:47:11;;;;;;;3.40;1.40;;;;;;;29.62;23.77;101260.79;106228;1271;97845;-71
2022/05/18 05:49:44;;;;;;;6.10;2.40;;;;;;;30.71;22.11;101266.67;106863;1273;137711;-69
2022/05/18 05:52:17;;;;;;;3.50;1.30;;;;;;;31.67;20.75;101271.75;107607;1273;110343;-73
2022/05/18 05:54:48;;;;;;;2.90;1.20;;;;;;;32.54;19.53;101266.38;107455;1273;137946;-74
2022/05/18 05:57:22;;;;;;;3.40;1.40;;;;;;;33.35;18.64;101270.15;107653;1271;108901;-69
2022/05/18 05:59:54;;;;;;;2.60;1.30;;;;;;;33.66;17.73;101274.38;107473;1273;138599;-69
2022/05/18 06:02:26;;;;;;;5.50;1.50;;;;;;;34.18;17.05;101279.79;106864;1272;97838;-67
2022/05/18 06:04:58;;;;;;;6.20;1.20;;;;;;;34.55;16.41;101282.30;107069;1273;112648;-68
2022/05/18 06:07:31;;;;;;;7.30;1.30;;;;;;;34.87;15.65;101285.74;107516;1273;139178;-67
2022/05/18 06:10:03;;;;;;;3.90;1.80;;;;;;;35.45;15.48;101288.29;106216;1273;108880;-69
2022/05/18 06:12:36;;;;;;;2.80;1.50;;;;;;;36.00;15.00;101290.67;106850;1273;137986;-71
2022/05/18 06:15:11;;;;;;;2.60;1.10;;;;;;;36.55;14.49;101295.00;107649;1273;95912;-76
2022/05/18 06:17:43;;;;;;;4.20;1.10;;;;;;;37.01;13.99;101294.64;107547;1273;138363;-69
2022/05/18 06:20:15;;;;;;;5.10;1.50;;;;;;;37.15;13.41;101295.16;107305;1273;107914;-70
2022/05/18 06:22:48;;;;;;;3.20;1.10;;;;;;;37.00;12.90;101296.84;107429;1273;108817;-70
2022/05/18 06:25:21;;;;;;;4.10;1.20;;;;;;;37.16;12.86;101304.69;107542;1273;137841;-70
2022/05/18 06:27:53;;;;;;;5.20;1.10;;;;;;;37.49;12.65;101303.67;106356;1273;97825;-70
2022/05/18 06:30:26;;;;;;;5.70;1.40;;;;;;;37.70;12.30;101303.60;106115;1273;138604;-70
2022/05/18 06:32:58;;;;;;;4.90;1.20;;;;;;;37.70;12.03;101305.64;107358;1273;109204;-69
2022/05/18 06:35:31;;;;;;;2.30;1.00;;;;;;;37.64;12.03;101307.37;105990;1273;137960;-69
2022/05/18 06:38:09;;;;;;;8.40;1.50;;;;;;;37.95;12.02;101315.33;106435;1273;98417;-69
2022/05/18 06:43:32;;;;;;;4.20;1.30;;;;;;;36.89;11.26;101325.36;107497;1273;139230;-70
2022/05/18 06:46:04;;;;;;;3.20;1.30;;;;;;;36.84;11.74;101319.51;107281;1273;108032;-70
2022/05/18 06:48:36;;;;;;;3.80;1.20;;;;;;;37.38;11.77;101314.44;107663;1271;138169;-70
2022/05/18 06:51:20;;;;;;;7.50;3.60;;;;;;;37.86;11.60;101317.71;107726;1271;95819;-70
2022/05/18 06:53:53;;;;;;;5.00;1.80;;;;;;;38.39;11.12;101317.31;107556;1273;139247;-70
2022/05/18 06:56:27;;;;;;;5.90;1.60;;;;;;;38.60;10.79;101316.58;106568;1273;112427;-69
2022/05/18 06:59:00;;;;;;;4.30;1.40;;;;;;;38.27;10.71;101319.75;106935;1273;108463;-69
2022/05/18 07:01:32;;;;;;;6.90;1.40;;;;;;;38.36;10.54;101323.59;107559;1271;137689;-69
2022/05/18 07:04:06;;;;;;;4.30;1.40;;;;;;;38.27;10.46;101324.24;106839;1273;96255;-69
2022/05/18 07:06:42;;;;;;;8.60;1.60;;;;;;;38.27;10.62;101328.93;107589;1273;140102;-69
2022/05/18 07:09:16;;;;;;;7.70;5.40;;;;;;;38.66;10.62;101335.16;107655;1272;111370;-69
2022/05/18 07:11:49;;;;;;;6.50;1.80;;;;;;;39.09;10.56;101330.67;107634;1273;138072;-69
2022/05/18 07:14:24;;;;;;;6.80;1.70;;;;;;;39.61;10.08;101340.92;106977;1273;107912;-69
2022/05/18 07:16:57;;;;;;;7.30;1.70;;;;;;;39.87;10.03;101338.92;106125;1273;97839;-69
2022/05/18 07:19:30;;;;;;;3.80;1.50;;;;;;;39.76;9.63;101344.98;107102;1273;137585;-69
2022/05/18 07:22:03;;;;;;;5.00;1.70;;;;;;;39.50;9.72;101345.50;107721;1273;111238;-69
2022/05/18 07:24:35;;;;;;;8.90;1.90;;;;;;;39.76;9.91;101342.10;107614;1273;137689;-70
2022/05/18 07:27:08;;;;;;;5.20;1.90;;;;;;;39.84;9.52;101339.31;106318;1273;108966;-69
2022/05/18 07:29:40;;;;;;;6.70;1.80;;;;;;;39.53;9.51;101342.33;105966;1273;137671;-68
2022/05/18 07:32:13;;;;;;;6.20;1.30;;;;;;;39.76;9.70;101341.02;106848;1273;97818;-69
2022/05/18 07:34:47;;;;;;;4.70;1.00;;;;;;;40.04;9.59;101343.55;107261;1273;112469;-69
2022/05/18 07:37:20;;;;;;;5.00;1.20;;;;;;;39.93;9.06;101334.62;106153;1273;137628;-69
2022/05/18 07:39:53;;;;;;;4.60;1.10;;;;;;;39.50;9.19;101336.08;106444;1272;108339;-69
2022/05/18 07:42:25;;;;;;;5.70;1.10;;;;;;;39.26;9.19;101330.42;107692;1271;138331;-70
2022/05/18 07:44:57;;;;;;;2.90;1.00;;;;;;;38.98;9.54;101335.50;106593;1273;97934;-69
2022/05/18 07:47:34;;;;;;;3.40;1.00;;;;;;;39.04;9.43;101335.30;106066;1273;138998;-70
2022/05/18 07:50:09;;;;;;;3.00;1.00;;;;;;;39.19;9.18;101330.83;106767;1273;108430;-68
2022/05/18 07:52:41;;;;;;;3.20;0.80;;;;;;;39.05;9.12;101329.52;106445;1272;107902;-68
2022/05/18 07:55:14;;;;;;;5.50;0.90;;;;;;;38.15;9.20;101334.15;106015;1273;229277;-68
2022/05/18 07:57:46;;;;;;;6.60;1.20;;;;;;;38.05;9.74;101332.17;107820;1272;96008;-69
2022/05/18 08:00:22;;;;;;;3.30;0.90;;;;;;;38.09;9.37;101335.71;107683;1272;137400;-69
2022/05/18 08:02:54;;;;;;;4.40;1.30;;;;;;;38.08;9.49;101334.12;107759;1273;108990;-69
2022/05/18 08:05:28;;;;;;;4.20;1.50;;;;;;;38.43;9.82;101333.21;106493;1272;137791;-70
2022/05/18 08:08:04;;;;;;;5.10;1.10;;;;;;;38.17;9.27;101333.23;106182;1271;97831;-69
2022/05/18 08:16:16;;;;;;;2.70;0.80;;;;;;;38.24;9.98;101319.58;106056;1273;109390;-68
2022/05/18 08:18:50;;;;;;;3.50;1.00;;;;;;;38.48;9.55;101322.49;107605;1273;137992;-69
2022/05/18 08:21:22;;;;;;;3.60;1.00;;;;;;;38.47;9.09;101320.52;107725;1273;96627;-68
2022/05/18 08:23:54;;;;;;;6.20;1.20;;;;;;;38.04;9.11;101320.98;107640;1273;139231;-68
2022/05/18 08:26:28;;;;;;;3.80;1.20;;;;;;;37.60;9.46;101317.48;107659;1273;111645;-68
2022/05/18 08:29:01;;;;;;;6.10;1.00;;;;;;;37.74;9.60;101319.32;106105;1273;108476;-68
2022/05/18 08:31:33;;;;;;;6.50;1.00;;;;;;;37.79;9.39;101320.27;106263;1273;137521;-69
2022/05/18 08:34:06;;;;;;;4.30;0.90;;;;;;;37.48;9.35;101319.39;107123;1273;97469;-69
2022/05/18 08:36:38;;;;;;;7.10;0.90;;;;;;;37.30;9.58;101316.23;107598;1272;137355;-69
2022/05/18 08:39:11;;;;;;;3.80;1.00;;;;;;;37.10;9.62;101313.67;107744;1273;112408;-68
2022/05/18 08:41:45;;;;;;;5.60;0.90;;;;;;;36.83;9.88;101319.77;107622;1273;139115;-69
2022/05/18 08:44:25;;;;;;;10.30;1.10;;;;;;;36.97;10.23;101322.06;107701;1271;107721;-69
2022/05/18 08:47:11;;;;;;;3.40;1.10;;;;;;;36.85;9.99;101315.58;107680;1273;96114;-68
2022/05/18 08:49:55;;;;;;;5.80;0.90;;;;;;;36.27;9.79;101317.67;107583;1273;138381;-68
2022/05/18 08:52:41;;;;;;;4.00;1.00;;;;;;;35.78;9.90;101321.88;107683;1273;112556;-67
2022/05/18 08:55:35;;;;;;;5.90;0.90;;;;;;;35.43;10.25;101321.14;106937;1273;138102;-66
2022/05/18 08:58:15;;;;;;;7.10;4.20;;;;;;;35.24;10.40;101321.63;106285;1273;109075;-68
2022/05/18 09:00:51;;;;;;;7.30;4.40;;;;;;;35.11;10.52;101322.21;107630;1272;138272;-68
2022/05/18 09:03:29;;;;;;;35.40;3.60;;;;;;;34.82;10.57;101322.28;107133;1273;96208;-63
2022/05/18 09:06:07;;;;;;;6.90;1.10;;;;;;;34.73;10.86;101321.33;107560;1273;138219;-65
2022/05/18 09:08:43;;;;;;;4.00;1.20;;;;;;;34.64;10.80;101323.33;106662;1273;106918;-71
2022/05/18 09:11:21;;;;;;;7.30;1.20;;;;;;;34.84;10.96;101316.79;107359;1273;107171;-71
2022/05/18 09:13:55;;;;;;;5.30;1.00;;;;;;;34.74;10.61;101312.92;107480;1273;96157;-71
2022/05/18 09:16:33;;;;;;;6.20;1.20;;;;;;;34.34;11.15;101311.84;106697;1273;97821;-71
2022/05/18 09:19:15;;;;;;;3.60;1.00;;;;;;;34.14;11.13;101308.55;107428;1273;137409;-70
2022/05/18 09:21:57;;;;;;;3.80;0.90;;;;;;;34.10;11.26;101308.23;106478;1273;109074;-70
2022/05/18 09:24:44;;;;;;;4.40;0.80;;;;;;;34.20;11.27;101309.45;106797;1272;138129;-70
2022/05/18 09:27:31;;;;;;;1.80;0.70;;;;;;;34.40;11.24;101303.94;106351;1273;97863;-70
2022/05/18 09:30:14;;;;;;;7.50;1.00;;;;;;;34.29;11.21;101309.04;107668;1273;137754;-71
2022/05/18 09:33:15;;;;;;;2.60;1.30;;;;;;;33.85;11.33;101306.29;107825;1272;112372;-70
2022/05/18 09:36:01;;;;;;;3.80;0.90;;;;;;;33.62;10.89;101309.80;107709;1272;138415;-70
2022/05/18 09:38:40;;;;;;;6.30;1.00;;;;;;;33.31;11.12;101303.04;107671;1273;108908;-71
2022/05/18 09:41:15;;;;;;;2.50;0.80;;;;;;;33.19;11.27;101305.85;107792;1273;96119;-70
2022/05/18 09:43:57;;;;;;;7.90;1.10;;;;;;;33.56;11.56;101299.89;107739;1272;95700;-71
2022/05/18 09:46:31;;;;;;;2.90;0.60;;;;;;;33.82;11.09;101303.62;106537;1273;110385;-72
2022/05/18 09:49:13;;;;;;;6.10;1.10;;;;;;;33.61;11.21;101302.14;107060;1272;138252;-70
2022/05/18 09:51:47;;;;;;;2.50;1.30;;;;;;;33.50;10.92;101302.16;107688;1273;108363;-70
2022/05/18 09:54:27;;;;;;;4.00;0.80;;;;;;;33.48;11.05;101295.34;107622;1272;139379;-71
2022/05/18 09:57:06;;;;;;;5.30;0.80;;;;;;;32.93;10.93;101304.36;107817;1271;95962;-69
2022/05/18 09:59:43;;;;;;;3.70;0.90;;;;;;;32.70;11.31;101303.14;107567;1273;137661;-68
2022/05/18 10:08:09;;;;;;;4.60;0.70;;;;;;;32.54;11.39;101303.20;106851;1273;97808;-70
2022/05/18 10:10:44;;;;;;;6.40;0.80;;;;;;;32.30;11.42;101303.45;106252;1271;97767;-71
2022/05/18 10:13:18;;;;;;;4.20;2.80;;;;;;;32.11;11.49;101300.64;107526;1273;137507;-71
2022/05/18 10:16:17;;;;;;;4.50;1.00;;;;;;;32.13;11.63;101302.41;106942;1272;107241;-69
2022/05/18 10:18:53;;;;;;;2.70;0.60;;;;;;;32.05;11.56;101300.67;107663;1272;137653;-70
2022/05/18 10:21:34;;;;;;;3.60;0.90;;;;;;;31.92;11.61;101299.46;107686;1272;96240;-70
2022/05/18 10:24:09;;;;;;;3.00;0.90;;;;;;;32.04;11.90;101296.75;107628;1273;138295;-70
2022/05/18 10:26:43;;;;;;;2.70;0.90;;;;;;;31.88;12.00;101295.54;106891;1273;112457;-72
2022/05/18 10:29:25;;;;;;;5.20;0.90;;;;;;;31.64;12.21;101295.34;106668;1273;110299;-70
2022/05/18 10:32:05;;;;;;;3.40;0.60;;;;;;;31.19;11.92;101289.52;106383;1273;109616;-70
2022/05/18 10:34:44;;;;;;;3.60;0.70;;;;;;;30.88;12.36;101289.37;107786;1272;96011;-71
2022/05/18 10:37:26;;;;;;;3.60;0.90;;;;;;;30.82;12.40;101284.80;107588;1273;137802;-71
2022/05/18 10:40:05;;;;;;;4.40;1.00;;;;;;;30.59;12.55;101278.33;107699;1273;110789;-71
2022/05/18 10:42:47;;;;;;;1.70;0.70;;;;;;;30.47;12.45;101273.22;107162;1273;138053;-70
2022/05/18 10:45:35;;;;;;;6.20;0.80;;;;;;;30.17;12.50;101277.34;106339;1273;108945;-71
2022/05/18 10:48:14;;;;;;;5.10;0.70;;;;;;;29.57;12.48;101280.30;107624;1273;140803;-71
2022/05/18 10:50:46;;;;;;;3.60;0.90;;;;;;;29.24;12.61;101281.61;107770;1273;96425;-71
2022/05/18 10:53:32;;;;;;;2.60;0.90;;;;;;;28.92;13.06;101280.86;107709;1273;111404;-71
2022/05/18 10:56:12;;;;;;;4.40;1.00;;;;;;;28.46;13.26;101278.11;106487;1273;107878;-71
2022/05/18 10:58:51;;;;;;;5.30;0.80;;;;;;;28.21;13.48;101282.00;107694;1272;107480;-75
2022/05/18 11:01:30;;;;;;;6.00;0.80;;;;;;;28.15;13.82;101286.09;107253;1272;138261;-69
2022/05/18 11:04:15;;;;;;;3.10;0.70;;;;;;;27.98;14.20;101281.20;106557;1273;97816;-69
2022/05/18 11:06:47;;;;;;;7.70;1.20;;;;;;;27.72;13.97;101272.76;105998;1273;137897;-68
2022/05/18 11:09:21;;;;;;;2.20;0.90;;;;;;;27.36;14.31;101276.10;107733;1273;108974;-68
2022/05/18 11:12:00;;;;;;;1.60;0.80;;;;;;;27.25;14.33;101271.81;107600;1273;140576;-69
2022/05/18 11:14:41;;;;;;;4.50;0.90;;;;;;;27.24;14.50;101270.73;107727;1272;97400;-68
2022/05/18 11:17:38;;;;;;;3.80;0.90;;;;;;;27.17;14.45;101263.83;107720;1273;95971;-70
2022/05/18 11:20:24;;;;;;;2.20;0.90;;;;;;;27.01;14.61;101262.30;107750;1273;112417;-69
2022/05/18 11:23:09;;;;;;;2.50;0.70;;;;;;;26.77;14.79;101260.80;107631;1273;107400;-70
2022/05/18 11:25:51;;;;;;;4.10;0.90;;;;;;;26.49;14.49;101259.92;106593;1273;137610;-70
2022/05/18 11:28:53;;;;;;;1.60;0.80;;;;;;;26.24;14.32;101269.27;107646;1272;96062;-70
2022/05/18 11:31:46;;;;;;;2.40;0.60;;;;;;;25.97;14.71;101263.96;106496;1273;137606;-72
2022/05/18 11:34:28;;;;;;;3.40;0.70;;;;;;;25.89;15.06;101265.89;106169;1273;112391;-70
2022/05/18 11:37:12;;;;;;;4.00;1.10;;;;;;;25.92;15.06;101261.19;107345;1273;138052;-69
2022/05/18 11:39:55;;;;;;;3.70;0.70;;;;;;;25.82;15.15;101262.33;107736;1273;107732;-70
2022/05/18 11:42:41;;;;;;;2.10;0.60;;;;;;;25.56;15.01;101263.17;106993;1273;138052;-71
2022/05/18 11:45:27;;;;;;;6.50;0.90;;;;;;;25.47;15.28;101258.16;107642;1273;96249;-70
2022/05/18 11:48:11;;;;;;;2.60;0.70;;;;;;;25.38;15.24;101253.88;107377;1273;137894;-69
2022/05/18 11:50:59;;;;;;;4.30;0.60;;;;;;;25.47;15.55;101255.86;106898;1273;108858;-70
2022/05/18 11:53:49;;;;;;;1.30;0.70;;;;;;;25.36;15.23;101251.17;107574;1273;140264;-70
2022/05/18 11:56:40;;;;;;;2.50;1.00;;;;;;;25.31;15.52;101252.11;107667;1272;97305;-70
2022/05/18 11:59:45;;;;;;;11.80;1.50;;;;;;;25.23;15.06;101253.47;107667;1273;96254;-70
2022/05/18 12:02:36;;;;;;;2.50;0.90;;;;;;;25.18;14.88;101249.75;107793;1272;111343;-71
2022/05/18 12:05:27;;;;;;;3.20;0.90;;;;;;;24.96;15.22;101246.09;107721;1273;108992;-71
2022/05/18 12:08:27;;;;;;;3.50;1.00;;;;;;;24.84;15.67;101247.72;107766;1273;108943;-70
2022/05/18 12:11:11;;;;;;;3.10;0.80;;;;;;;24.70;15.74;101247.88;107706;1273;95959;-71